createdAt,value
2023-07-02T00:02:34.554Z,100.00
2023-07-02T00:06:41.665Z,100.00
2023-07-02T00:10:45.744Z,100.00
2023-07-02T00:14:48.858Z,100.00
2023-07-02T00:18:53.836Z,100.00
2023-07-02T00:22:57.234Z,100.00
2023-07-02T00:27:00.175Z,100.00
2023-07-02T00:31:03.445Z,100.00
2023-07-02T00:35:08.541Z,100.00
2023-07-02T00:39:12.958Z,100.00
2023-07-02T00:43:15.996Z,100.00
2023-07-02T00:47:18.853Z,100.00
2023-07-02T00:51:24.558Z,100.00
2023-07-02T00:55:27.581Z,100.00
2023-07-02T00:59:31.825Z,100.00
2023-07-02T01:03:38.371Z,100.00
2023-07-02T01:07:42.669Z,100.00
2023-07-02T01:11:48.711Z,100.00
2023-07-02T01:15:52.686Z,100.00
2023-07-02T01:20:00.223Z,100.00
2023-07-02T01:24:03.918Z,100.00
2023-07-02T01:28:07.041Z,100.00
2023-07-02T01:32:10.449Z,100.00
2023-07-02T01:36:14.738Z,100.00
2023-07-02T01:40:17.784Z,100.00
2023-07-02T01:44:21.254Z,100.00
2023-07-02T01:48:24.130Z,100.00
2023-07-02T01:52:28.932Z,100.00
2023-07-02T01:56:31.854Z,100.00
2023-07-02T02:00:34.765Z,100.00
2023-07-02T02:04:38.229Z,100.00
2023-07-02T02:08:42.460Z,100.00
2023-07-02T02:12:47.352Z,100.00
2023-07-02T02:16:51.017Z,100.00
2023-07-02T02:20:53.940Z,100.00
2023-07-02T02:24:58.138Z,100.00
2023-07-02T02:29:01.007Z,100.00
2023-07-02T02:33:03.861Z,100.00
2023-07-02T02:37:07.082Z,100.00
2023-07-02T02:41:11.715Z,100.00
2023-07-02T02:45:19.214Z,100.00
2023-07-02T02:49:27.829Z,100.00
2023-07-02T02:53:30.720Z,100.00
2023-07-02T02:57:36.284Z,100.00
2023-07-02T03:01:44.118Z,100.00
2023-07-02T03:05:49.234Z,100.00
2023-07-02T03:09:52.111Z,100.00
2023-07-02T03:13:56.361Z,100.00
2023-07-02T03:18:00.318Z,100.00
2023-07-02T03:22:03.270Z,100.00
2023-07-02T03:26:06.292Z,100.00
2023-07-02T03:30:11.148Z,100.00
2023-07-02T03:34:14.000Z,100.00
2023-07-02T03:38:16.987Z,100.00
2023-07-02T03:42:20.274Z,100.00
2023-07-02T03:46:24.477Z,100.00
2023-07-02T03:50:28.308Z,100.00
2023-07-02T03:54:31.206Z,100.00
2023-07-02T03:58:34.833Z,100.00
2023-07-02T04:02:39.216Z,100.00
2023-07-02T04:06:42.151Z,100.00
2023-07-02T04:10:45.062Z,100.00
2023-07-02T04:14:47.958Z,100.00
2023-07-02T04:18:52.158Z,100.00
2023-07-02T04:22:55.057Z,100.00
2023-07-02T04:27:38.635Z,100.00
2023-07-02T04:31:21.067Z,100.00
2023-07-02T04:35:25.524Z,100.00
2023-07-02T04:39:28.363Z,100.00
2023-07-02T04:43:31.270Z,100.00
2023-07-02T04:47:35.178Z,100.00
2023-07-02T04:51:41.426Z,100.00
2023-07-02T04:55:45.304Z,100.00
2023-07-02T04:59:48.732Z,100.00
2023-07-02T05:03:51.633Z,100.00
2023-07-02T05:07:56.723Z,100.00
2023-07-02T05:11:59.773Z,100.00
2023-07-02T05:16:02.597Z,100.00
2023-07-02T05:20:06.592Z,100.00
2023-07-02T05:24:11.725Z,100.00
2023-07-02T05:28:14.549Z,100.00
2023-07-02T05:32:17.356Z,100.00
2023-07-02T05:36:20.228Z,100.00
2023-07-02T05:40:24.459Z,100.00
2023-07-02T05:44:27.391Z,100.00
2023-07-02T05:48:30.423Z,100.00
2023-07-02T05:52:33.275Z,100.00
2023-07-02T05:56:37.501Z,100.00
2023-07-02T06:00:42.516Z,100.00
2023-07-02T06:04:45.597Z,100.00
2023-07-02T06:08:48.543Z,96.51
2023-07-02T06:12:53.219Z,97.27
2023-07-02T06:16:58.513Z,93.51
2023-07-02T06:21:01.462Z,92.82
2023-07-02T06:25:05.968Z,93.00
2023-07-02T06:29:10.316Z,87.84
2023-07-02T06:33:13.165Z,82.80
2023-07-02T06:37:16.005Z,79.80
2023-07-02T06:41:20.821Z,82.55
2023-07-02T06:45:26.961Z,77.24
2023-07-02T06:49:29.802Z,75.97
2023-07-02T06:53:32.850Z,74.39
2023-07-02T06:57:35.752Z,72.68
2023-07-02T07:01:39.936Z,73.32
2023-07-02T07:05:43.048Z,71.77
2023-07-02T07:09:45.903Z,68.40
2023-07-02T07:13:48.684Z,70.05
2023-07-02T07:17:52.908Z,67.92
2023-07-02T07:21:55.793Z,66.19
2023-07-02T07:25:59.013Z,64.17
2023-07-02T07:30:02.128Z,63.28
2023-07-02T07:34:06.296Z,65.68
2023-07-02T07:38:09.280Z,63.55
2023-07-02T07:42:12.110Z,62.40
2023-07-02T07:46:15.047Z,61.34
2023-07-02T07:50:19.489Z,60.44
2023-07-02T07:54:22.287Z,59.44
2023-07-02T07:58:25.814Z,57.70
2023-07-02T08:02:28.707Z,56.08
2023-07-02T08:06:32.937Z,56.72
2023-07-02T08:10:35.800Z,57.72
2023-07-02T08:14:38.918Z,57.63
2023-07-02T08:18:41.918Z,54.97
2023-07-02T08:22:46.352Z,55.56
2023-07-02T08:26:50.574Z,54.62
2023-07-02T08:30:53.423Z,56.35
2023-07-02T08:34:56.900Z,53.21
2023-07-02T08:39:01.079Z,53.40
2023-07-02T08:43:04.110Z,53.76
2023-07-02T08:47:08.207Z,53.76
2023-07-02T08:51:11.062Z,56.06
2023-07-02T08:55:15.364Z,53.95
2023-07-02T08:59:18.350Z,51.85
2023-07-02T09:03:21.213Z,54.06
2023-07-02T09:07:24.216Z,52.82
2023-07-02T09:11:28.878Z,52.39
2023-07-02T09:15:38.270Z,50.96
2023-07-02T09:19:52.029Z,51.82
2023-07-02T09:23:55.286Z,52.88
2023-07-02T09:27:59.590Z,54.72
2023-07-02T09:32:10.089Z,56.59
2023-07-02T09:36:14.828Z,55.21
2023-07-02T09:40:19.196Z,52.28
2023-07-02T09:44:24.474Z,52.60
2023-07-02T09:48:30.024Z,52.03
2023-07-02T09:52:33.245Z,50.94
2023-07-02T09:56:36.241Z,50.75
2023-07-02T10:00:41.808Z,48.91
2023-07-02T10:04:46.391Z,48.60
2023-07-02T10:08:56.669Z,47.97
2023-07-02T10:13:00.224Z,46.64
2023-07-02T10:17:04.775Z,45.70
2023-07-02T10:21:17.797Z,43.75
2023-07-02T10:25:27.149Z,44.14
2023-07-02T10:29:31.274Z,44.58
2023-07-02T10:33:35.440Z,45.93
2023-07-02T10:37:38.990Z,44.46
2023-07-02T10:41:42.102Z,45.28
2023-07-02T10:45:45.409Z,42.22
2023-07-02T10:49:49.678Z,43.00
2023-07-02T10:53:59.891Z,43.18
2023-07-02T10:58:07.978Z,42.94
2023-07-02T11:02:11.274Z,43.44
2023-07-02T11:06:15.662Z,42.13
2023-07-02T11:10:22.405Z,40.96
2023-07-02T11:14:29.562Z,40.92
2023-07-02T11:18:33.241Z,40.21
2023-07-02T11:22:39.504Z,39.05
2023-07-02T11:26:44.411Z,40.14
2023-07-02T11:30:47.718Z,41.72
2023-07-02T11:34:56.029Z,40.19
2023-07-02T11:39:00.224Z,41.05
2023-07-02T11:43:03.085Z,40.77
2023-07-02T11:47:06.614Z,39.64
2023-07-02T11:51:09.481Z,40.62
2023-07-02T11:55:14.053Z,41.03
2023-07-02T11:59:16.886Z,40.04
2023-07-02T12:03:20.088Z,38.35
2023-07-02T12:07:22.885Z,39.63
2023-07-02T12:11:27.254Z,37.83
2023-07-02T12:15:30.100Z,37.35
2023-07-02T12:19:32.930Z,36.19
2023-07-02T12:23:35.742Z,36.29
2023-07-02T12:27:39.918Z,36.45
2023-07-02T12:31:42.746Z,35.90
2023-07-02T12:35:45.588Z,36.30
2023-07-02T12:39:48.460Z,36.32
2023-07-02T12:43:55.855Z,35.08
2023-07-02T12:47:58.708Z,35.36
2023-07-02T12:52:01.751Z,35.11
2023-07-02T12:56:05.001Z,35.39
2023-07-02T13:00:10.786Z,35.43
2023-07-02T13:04:15.867Z,36.69
2023-07-02T13:08:19.310Z,36.22
2023-07-02T13:12:22.149Z,35.28
2023-07-02T13:16:26.436Z,36.17
2023-07-02T13:20:29.434Z,37.24
2023-07-02T13:24:36.305Z,37.64
2023-07-02T13:28:39.158Z,36.39
2023-07-02T13:32:43.344Z,37.49
2023-07-02T13:36:46.165Z,37.68
2023-07-02T13:40:49.071Z,36.77
2023-07-02T13:44:52.010Z,37.02
2023-07-02T13:48:56.301Z,36.08
2023-07-02T13:52:59.188Z,36.83
2023-07-02T13:57:02.082Z,37.67
2023-07-02T14:01:06.917Z,37.78
2023-07-02T14:05:10.469Z,38.05
2023-07-02T14:09:13.808Z,38.27
2023-07-02T14:13:16.795Z,37.58
2023-07-02T14:17:21.412Z,37.55
2023-07-02T14:21:24.437Z,38.29
2023-07-02T14:25:40.747Z,38.49
2023-07-02T14:29:44.852Z,37.93
2023-07-02T14:33:49.233Z,37.18
2023-07-02T14:37:52.158Z,38.19
2023-07-02T14:41:55.019Z,36.93
2023-07-02T14:46:00.329Z,38.67
2023-07-02T14:50:04.775Z,38.17
2023-07-02T14:54:07.586Z,37.41
2023-07-02T14:58:11.611Z,36.91
2023-07-02T15:02:14.673Z,36.59
2023-07-02T15:06:20.387Z,36.76
2023-07-02T15:10:23.263Z,37.54
2023-07-02T15:14:26.278Z,37.31
2023-07-02T15:18:29.543Z,37.32
2023-07-02T15:22:33.748Z,38.75
2023-07-02T15:26:36.949Z,38.78
2023-07-02T15:30:40.957Z,37.00
2023-07-02T15:34:43.737Z,37.88
2023-07-02T15:38:48.032Z,38.07
2023-07-02T15:42:53.607Z,38.98
2023-07-02T15:46:57.529Z,39.68
2023-07-02T15:51:00.466Z,38.52
2023-07-02T15:55:04.750Z,39.17
2023-07-02T15:59:07.606Z,39.17
2023-07-02T16:03:10.421Z,39.41
2023-07-02T16:07:14.129Z,39.99
2023-07-02T16:11:18.271Z,39.07
2023-07-02T16:15:21.753Z,40.05
2023-07-02T16:19:25.216Z,39.24
2023-07-02T16:23:28.160Z,39.77
2023-07-02T16:27:32.372Z,40.02
2023-07-02T16:31:35.991Z,40.30
2023-07-02T16:35:38.955Z,40.51
2023-07-02T16:39:41.796Z,39.88
2023-07-02T16:43:45.931Z,39.77
2023-07-02T16:47:48.846Z,39.87
2023-07-02T16:51:52.352Z,40.42
2023-07-02T16:55:58.475Z,42.06
2023-07-02T17:00:02.771Z,41.69
2023-07-02T17:04:05.921Z,40.38
2023-07-02T17:08:08.945Z,39.37
2023-07-02T17:12:14.690Z,40.35
2023-07-02T17:16:18.979Z,39.56
2023-07-02T17:20:21.825Z,40.00
2023-07-02T17:24:26.767Z,39.90
2023-07-02T17:28:30.682Z,42.49
2023-07-02T17:32:35.773Z,40.62
2023-07-02T17:36:38.632Z,40.14
2023-07-02T17:40:42.014Z,40.90
2023-07-02T17:44:46.393Z,41.04
2023-07-02T17:48:50.575Z,41.75
2023-07-02T17:52:53.507Z,42.17
2023-07-02T17:56:56.889Z,41.73
2023-07-02T18:00:59.833Z,41.96
2023-07-02T18:05:04.295Z,41.91
2023-07-02T18:09:07.400Z,42.22
2023-07-02T18:13:10.692Z,41.80
2023-07-02T18:17:13.781Z,42.17
2023-07-02T18:21:18.159Z,42.09
2023-07-02T18:25:21.344Z,42.30
2023-07-02T18:29:24.231Z,42.51
2023-07-02T18:33:27.826Z,42.42
2023-07-02T18:37:32.017Z,42.39
2023-07-02T18:41:34.859Z,42.48
2023-07-02T18:45:37.680Z,43.09
2023-07-02T18:49:41.375Z,43.21
2023-07-02T18:53:45.580Z,43.34
2023-07-02T18:57:48.481Z,44.22
2023-07-02T19:01:51.764Z,44.50
2023-07-02T19:05:54.642Z,44.65
2023-07-02T19:09:59.917Z,44.84
2023-07-02T19:14:03.325Z,45.19
2023-07-02T19:18:08.056Z,45.26
2023-07-02T19:22:11.996Z,45.39
2023-07-02T19:26:16.151Z,45.88
2023-07-02T19:30:19.438Z,45.55
2023-07-02T19:34:22.454Z,46.04
2023-07-02T19:38:25.864Z,46.12
2023-07-02T19:42:31.573Z,46.47
2023-07-02T19:46:34.760Z,47.07
2023-07-02T19:50:37.678Z,47.44
2023-07-02T19:54:42.154Z,48.12
2023-07-02T19:58:47.026Z,48.17
2023-07-02T20:02:49.983Z,48.48
2023-07-02T20:06:53.068Z,49.23
2023-07-02T20:10:56.080Z,49.53
